sensor_id;sensor_type;location;lat;lon;timestamp;P1;durP1;ratioP1;P2;durP2;ratioP2
68608;SDS011;55581;46.718;7.690;2024-03-08T00:01:09;4.50;;;1.50;;
68608;SDS011;55581;46.718;7.690;2024-03-08T00:03:35;4.55;;;1.58;;
68608;SDS011;55581;46.718;7.690;2024-03-08T00:06:03;4.80;;;1.53;;
68608;SDS011;55581;46.718;7.690;2024-03-08T00:08:29;5.22;;;1.73;;
68608;SDS011;55581;46.718;7.690;2024-03-08T00:10:56;3.97;;;1.42;;
68608;SDS011;55581;46.718;7.690;2024-03-08T00:13:21;4.50;;;1.50;;
68608;SDS011;55581;46.718;7.690;2024-03-08T00:15:46;6.63;;;3.00;;
68608;SDS011;55581;46.718;7.690;2024-03-08T00:18:14;6.80;;;2.70;;
68608;SDS011;55581;46.718;7.690;2024-03-08T00:20:40;5.87;;;2.40;;
68608;SDS011;55581;46.718;7.690;2024-03-08T00:23:11;6.97;;;2.75;;
68608;SDS011;55581;46.718;7.690;2024-03-08T00:25:37;9.63;;;3.08;;
68608;SDS011;55581;46.718;7.690;2024-03-08T00:28:02;6.97;;;2.70;;
68608;SDS011;55581;46.718;7.690;2024-03-08T00:30:29;7.45;;;3.10;;
68608;SDS011;55581;46.718;7.690;2024-03-08T00:32:56;6.30;;;1.70;;
68608;SDS011;55581;46.718;7.690;2024-03-08T00:35:21;5.33;;;1.77;;
68608;SDS011;55581;46.718;7.690;2024-03-08T00:37:47;5.43;;;1.95;;
68608;SDS011;55581;46.718;7.690;2024-03-08T00:40:13;7.10;;;2.90;;
68608;SDS011;55581;46.718;7.690;2024-03-08T00:42:38;8.82;;;3.58;;
68608;SDS011;55581;46.718;7.690;2024-03-08T00:45:06;8.77;;;3.70;;
68608;SDS011;55581;46.718;7.690;2024-03-08T00:47:31;7.47;;;3.23;;
68608;SDS011;55581;46.718;7.690;2024-03-08T00:49:57;8.37;;;3.50;;
68608;SDS011;55581;46.718;7.690;2024-03-08T00:52:22;8.30;;;3.45;;
68608;SDS011;55581;46.718;7.690;2024-03-08T00:54:49;7.50;;;3.22;;
68608;SDS011;55581;46.718;7.690;2024-03-08T00:57:14;7.80;;;3.27;;
68608;SDS011;55581;46.718;7.690;2024-03-08T00:59:42;7.17;;;3.37;;
68608;SDS011;55581;46.718;7.690;2024-03-08T01:02:08;8.85;;;3.53;;
68608;SDS011;55581;46.718;7.690;2024-03-08T01:04:35;7.65;;;3.28;;
68608;SDS011;55581;46.718;7.690;2024-03-08T01:07:01;10.13;;;3.63;;
68608;SDS011;55581;46.718;7.690;2024-03-08T01:09:26;7.87;;;3.27;;
68608;SDS011;55581;46.718;7.690;2024-03-08T01:11:52;9.00;;;3.30;;
68608;SDS011;55581;46.718;7.690;2024-03-08T01:14:24;6.93;;;2.80;;
68608;SDS011;55581;46.718;7.690;2024-03-08T01:16:55;6.60;;;2.67;;
68608;SDS011;55581;46.718;7.690;2024-03-08T01:19:20;7.97;;;2.70;;
68608;SDS011;55581;46.718;7.690;2024-03-08T01:21:46;7.80;;;2.87;;
68608;SDS011;55581;46.718;7.690;2024-03-08T01:24:11;7.15;;;2.55;;
68608;SDS011;55581;46.718;7.690;2024-03-08T01:26:37;6.30;;;2.23;;
68608;SDS011;55581;46.718;7.690;2024-03-08T01:29:02;5.83;;;1.60;;
68608;SDS011;55581;46.718;7.690;2024-03-08T01:31:31;4.95;;;1.48;;
68608;SDS011;55581;46.718;7.690;2024-03-08T01:33:57;4.40;;;1.00;;
68608;SDS011;55581;46.718;7.690;2024-03-08T01:36:23;5.33;;;1.40;;
68608;SDS011;55581;46.718;7.690;2024-03-08T01:38:49;4.05;;;0.73;;
68608;SDS011;55581;46.718;7.690;2024-03-08T01:41:15;4.65;;;1.08;;
68608;SDS011;55581;46.718;7.690;2024-03-08T01:43:42;5.78;;;0.95;;
68608;SDS011;55581;46.718;7.690;2024-03-08T01:46:08;4.00;;;0.80;;
68608;SDS011;55581;46.718;7.690;2024-03-08T01:48:38;3.30;;;0.80;;
68608;SDS011;55581;46.718;7.690;2024-03-08T01:51:06;4.68;;;0.68;;
68608;SDS011;55581;46.718;7.690;2024-03-08T01:53:31;4.10;;;0.80;;
68608;SDS011;55581;46.718;7.690;2024-03-08T01:55:57;5.17;;;1.23;;
68608;SDS011;55581;46.718;7.690;2024-03-08T01:58:24;5.38;;;1.77;;
68608;SDS011;55581;46.718;7.690;2024-03-08T02:00:53;5.25;;;1.60;;
68608;SDS011;55581;46.718;7.690;2024-03-08T02:03:19;6.30;;;2.00;;
68608;SDS011;55581;46.718;7.690;2024-03-08T02:05:45;4.90;;;1.83;;
68608;SDS011;55581;46.718;7.690;2024-03-08T02:08:10;6.03;;;2.03;;
68608;SDS011;55581;46.718;7.690;2024-03-08T02:10:43;6.95;;;2.35;;
68608;SDS011;55581;46.718;7.690;2024-03-08T02:13:11;5.60;;;1.27;;
68608;SDS011;55581;46.718;7.690;2024-03-08T02:18:22;7.10;;;1.60;;
68608;SDS011;55581;46.718;7.690;2024-03-08T02:23:17;5.78;;;1.70;;
68608;SDS011;55581;46.718;7.690;2024-03-08T02:25:50;7.55;;;2.22;;
68608;SDS011;55581;46.718;7.690;2024-03-08T02:28:16;6.03;;;2.00;;
68608;SDS011;55581;46.718;7.690;2024-03-08T02:30:45;6.88;;;2.78;;
68608;SDS011;55581;46.718;7.690;2024-03-08T02:33:14;7.47;;;2.67;;
68608;SDS011;55581;46.718;7.690;2024-03-08T02:35:46;7.53;;;2.60;;
68608;SDS011;55581;46.718;7.690;2024-03-08T02:38:12;6.70;;;2.70;;
68608;SDS011;55581;46.718;7.690;2024-03-08T02:40:43;8.00;;;2.57;;
68608;SDS011;55581;46.718;7.690;2024-03-08T02:43:09;6.40;;;2.50;;
68608;SDS011;55581;46.718;7.690;2024-03-08T02:45:35;6.90;;;2.92;;
68608;SDS011;55581;46.718;7.690;2024-03-08T02:48:01;8.10;;;2.80;;
68608;SDS011;55581;46.718;7.690;2024-03-08T02:50:27;9.40;;;2.90;;
68608;SDS011;55581;46.718;7.690;2024-03-08T02:52:52;7.10;;;2.20;;
68608;SDS011;55581;46.718;7.690;2024-03-08T02:55:17;5.77;;;1.70;;
68608;SDS011;55581;46.718;7.690;2024-03-08T02:57:46;5.27;;;1.80;;
68608;SDS011;55581;46.718;7.690;2024-03-08T03:00:17;7.20;;;1.88;;
68608;SDS011;55581;46.718;7.690;2024-03-08T03:02:44;5.65;;;1.95;;
68608;SDS011;55581;46.718;7.690;2024-03-08T03:05:10;6.45;;;2.38;;
68608;SDS011;55581;46.718;7.690;2024-03-08T03:07:36;7.05;;;2.45;;
68608;SDS011;55581;46.718;7.690;2024-03-08T03:10:02;6.33;;;2.07;;
68608;SDS011;55581;46.718;7.690;2024-03-08T03:12:28;5.65;;;2.13;;
68608;SDS011;55581;46.718;7.690;2024-03-08T03:14:55;8.07;;;2.50;;
68608;SDS011;55581;46.718;7.690;2024-03-08T03:17:21;6.18;;;2.28;;
68608;SDS011;55581;46.718;7.690;2024-03-08T03:19:47;5.17;;;1.50;;
68608;SDS011;55581;46.718;7.690;2024-03-08T03:22:13;4.35;;;1.15;;
68608;SDS011;55581;46.718;7.690;2024-03-08T03:24:38;3.77;;;0.60;;
68608;SDS011;55581;46.718;7.690;2024-03-08T03:27:04;3.90;;;0.63;;
68608;SDS011;55581;46.718;7.690;2024-03-08T03:29:41;2.88;;;0.60;;
68608;SDS011;55581;46.718;7.690;2024-03-08T03:32:10;4.32;;;0.73;;
68608;SDS011;55581;46.718;7.690;2024-03-08T03:34:39;4.32;;;1.13;;
68608;SDS011;55581;46.718;7.690;2024-03-08T03:37:05;4.73;;;1.30;;
68608;SDS011;55581;46.718;7.690;2024-03-08T03:39:33;4.97;;;1.65;;
68608;SDS011;55581;46.718;7.690;2024-03-08T03:41:59;5.75;;;1.92;;
68608;SDS011;55581;46.718;7.690;2024-03-08T03:44:27;4.17;;;1.20;;
68608;SDS011;55581;46.718;7.690;2024-03-08T03:46:53;5.63;;;1.65;;
68608;SDS011;55581;46.718;7.690;2024-03-08T03:49:18;7.83;;;2.73;;
68608;SDS011;55581;46.718;7.690;2024-03-08T03:51:44;8.18;;;2.92;;
68608;SDS011;55581;46.718;7.690;2024-03-08T03:54:10;6.33;;;2.63;;
68608;SDS011;55581;46.718;7.690;2024-03-08T03:56:35;6.93;;;2.60;;
68608;SDS011;55581;46.718;7.690;2024-03-08T03:59:01;6.77;;;2.50;;
68608;SDS011;55581;46.718;7.690;2024-03-08T04:01:26;7.77;;;2.60;;
68608;SDS011;55581;46.718;7.690;2024-03-08T04:03:54;9.73;;;3.45;;
68608;SDS011;55581;46.718;7.690;2024-03-08T04:06:20;8.07;;;2.13;;
68608;SDS011;55581;46.718;7.690;2024-03-08T04:08:50;5.17;;;1.57;;
68608;SDS011;55581;46.718;7.690;2024-03-08T04:11:16;4.53;;;1.35;;
68608;SDS011;55581;46.718;7.690;2024-03-08T04:13:42;5.28;;;2.13;;
68608;SDS011;55581;46.718;7.690;2024-03-08T04:16:08;4.32;;;1.40;;
68608;SDS011;55581;46.718;7.690;2024-03-08T04:18:34;3.57;;;0.97;;
68608;SDS011;55581;46.718;7.690;2024-03-08T04:21:01;5.00;;;1.40;;
68608;SDS011;55581;46.718;7.690;2024-03-08T04:23:31;6.63;;;1.42;;
68608;SDS011;55581;46.718;7.690;2024-03-08T04:26:01;5.50;;;1.90;;
68608;SDS011;55581;46.718;7.690;2024-03-08T04:28:29;6.32;;;1.35;;
68608;SDS011;55581;46.718;7.690;2024-03-08T04:30:57;5.63;;;1.60;;
68608;SDS011;55581;46.718;7.690;2024-03-08T04:33:31;9.15;;;2.25;;
68608;SDS011;55581;46.718;7.690;2024-03-08T04:35:57;5.80;;;2.17;;
68608;SDS011;55581;46.718;7.690;2024-03-08T04:38:23;6.90;;;2.20;;
68608;SDS011;55581;46.718;7.690;2024-03-08T04:40:49;6.70;;;2.75;;
68608;SDS011;55581;46.718;7.690;2024-03-08T04:43:16;7.20;;;2.25;;
68608;SDS011;55581;46.718;7.690;2024-03-08T04:45:43;9.57;;;3.57;;
68608;SDS011;55581;46.718;7.690;2024-03-08T04:48:09;9.10;;;3.60;;
68608;SDS011;55581;46.718;7.690;2024-03-08T04:50:34;11.13;;;4.00;;
68608;SDS011;55581;46.718;7.690;2024-03-08T04:53:00;8.25;;;3.22;;
68608;SDS011;55581;46.718;7.690;2024-03-08T04:55:26;7.67;;;3.20;;
68608;SDS011;55581;46.718;7.690;2024-03-08T04:57:51;10.00;;;4.20;;
68608;SDS011;55581;46.718;7.690;2024-03-08T05:00:18;8.80;;;3.55;;
68608;SDS011;55581;46.718;7.690;2024-03-08T05:02:44;11.00;;;4.20;;
68608;SDS011;55581;46.718;7.690;2024-03-08T05:05:09;9.10;;;3.47;;
68608;SDS011;55581;46.718;7.690;2024-03-08T05:07:37;9.32;;;3.65;;
68608;SDS011;55581;46.718;7.690;2024-03-08T05:10:04;9.75;;;4.43;;
68608;SDS011;55581;46.718;7.690;2024-03-08T05:12:30;9.23;;;3.70;;
68608;SDS011;55581;46.718;7.690;2024-03-08T05:14:56;11.05;;;4.57;;
68608;SDS011;55581;46.718;7.690;2024-03-08T05:17:22;11.33;;;4.57;;
68608;SDS011;55581;46.718;7.690;2024-03-08T05:19:51;11.48;;;4.53;;
68608;SDS011;55581;46.718;7.690;2024-03-08T05:22:17;10.65;;;4.45;;
68608;SDS011;55581;46.718;7.690;2024-03-08T05:24:45;9.65;;;4.38;;
68608;SDS011;55581;46.718;7.690;2024-03-08T05:27:10;10.90;;;3.90;;
68608;SDS011;55581;46.718;7.690;2024-03-08T05:29:36;9.57;;;3.63;;
68608;SDS011;55581;46.718;7.690;2024-03-08T05:32:02;9.80;;;4.28;;
68608;SDS011;55581;46.718;7.690;2024-03-08T05:34:29;10.32;;;3.95;;
68608;SDS011;55581;46.718;7.690;2024-03-08T05:36:54;11.30;;;4.68;;
68608;SDS011;55581;46.718;7.690;2024-03-08T05:39:23;10.52;;;4.32;;
68608;SDS011;55581;46.718;7.690;2024-03-08T05:41:51;8.40;;;3.63;;
68608;SDS011;55581;46.718;7.690;2024-03-08T05:44:16;11.40;;;4.80;;
68608;SDS011;55581;46.718;7.690;2024-03-08T05:46:42;18.00;;;6.00;;
68608;SDS011;55581;46.718;7.690;2024-03-08T05:49:08;10.50;;;4.90;;
68608;SDS011;55581;46.718;7.690;2024-03-08T05:51:35;9.93;;;4.38;;
68608;SDS011;55581;46.718;7.690;2024-03-08T05:56:30;8.15;;;3.25;;
68608;SDS011;55581;46.718;7.690;2024-03-08T05:58:58;7.43;;;3.20;;
68608;SDS011;55581;46.718;7.690;2024-03-08T06:01:24;8.93;;;3.58;;
68608;SDS011;55581;46.718;7.690;2024-03-08T06:03:51;9.23;;;4.03;;
68608;SDS011;55581;46.718;7.690;2024-03-08T06:06:20;9.88;;;4.45;;
68608;SDS011;55581;46.718;7.690;2024-03-08T06:08:46;10.60;;;4.35;;
68608;SDS011;55581;46.718;7.690;2024-03-08T06:11:14;12.30;;;4.55;;
68608;SDS011;55581;46.718;7.690;2024-03-08T06:13:40;11.95;;;4.57;;
68608;SDS011;55581;46.718;7.690;2024-03-08T06:16:05;8.10;;;3.13;;
68608;SDS011;55581;46.718;7.690;2024-03-08T06:18:33;17.67;;;7.13;;
68608;SDS011;55581;46.718;7.690;2024-03-08T06:21:03;45.78;;;16.40;;
68608;SDS011;55581;46.718;7.690;2024-03-08T06:23:34;10.23;;;3.80;;
68608;SDS011;55581;46.718;7.690;2024-03-08T06:26:06;9.27;;;4.13;;
68608;SDS011;55581;46.718;7.690;2024-03-08T06:28:32;8.13;;;3.80;;
68608;SDS011;55581;46.718;7.690;2024-03-08T06:30:59;8.75;;;3.25;;
68608;SDS011;55581;46.718;7.690;2024-03-08T06:33:25;10.70;;;4.93;;
68608;SDS011;55581;46.718;7.690;2024-03-08T06:35:51;12.13;;;4.23;;
68608;SDS011;55581;46.718;7.690;2024-03-08T06:38:17;11.43;;;4.40;;
68608;SDS011;55581;46.718;7.690;2024-03-08T06:40:44;12.52;;;6.60;;
68608;SDS011;55581;46.718;7.690;2024-03-08T06:43:12;12.85;;;6.55;;
68608;SDS011;55581;46.718;7.690;2024-03-08T06:45:41;13.93;;;4.97;;
68608;SDS011;55581;46.718;7.690;2024-03-08T06:48:18;10.32;;;4.60;;
68608;SDS011;55581;46.718;7.690;2024-03-08T06:50:44;12.55;;;4.45;;
68608;SDS011;55581;46.718;7.690;2024-03-08T06:53:11;9.75;;;4.82;;
68608;SDS011;55581;46.718;7.690;2024-03-08T06:55:39;9.88;;;4.15;;
68608;SDS011;55581;46.718;7.690;2024-03-08T06:58:05;10.20;;;4.10;;
68608;SDS011;55581;46.718;7.690;2024-03-08T07:00:32;9.00;;;3.92;;
68608;SDS011;55581;46.718;7.690;2024-03-08T07:02:57;11.10;;;4.75;;
68608;SDS011;55581;46.718;7.690;2024-03-08T07:05:28;12.40;;;4.80;;
68608;SDS011;55581;46.718;7.690;2024-03-08T07:07:57;11.98;;;3.58;;
68608;SDS011;55581;46.718;7.690;2024-03-08T07:10:23;11.93;;;6.10;;
68608;SDS011;55581;46.718;7.690;2024-03-08T07:12:51;11.43;;;4.10;;
68608;SDS011;55581;46.718;7.690;2024-03-08T07:15:18;10.63;;;4.28;;
68608;SDS011;55581;46.718;7.690;2024-03-08T07:17:44;9.02;;;4.22;;
68608;SDS011;55581;46.718;7.690;2024-03-08T07:20:13;8.20;;;3.70;;
68608;SDS011;55581;46.718;7.690;2024-03-08T07:22:43;7.65;;;3.38;;
68608;SDS011;55581;46.718;7.690;2024-03-08T07:25:08;8.55;;;3.65;;
68608;SDS011;55581;46.718;7.690;2024-03-08T07:27:53;10.75;;;4.05;;
68608;SDS011;55581;46.718;7.690;2024-03-08T07:30:20;9.50;;;3.67;;
68608;SDS011;55581;46.718;7.690;2024-03-08T07:33:07;8.67;;;3.43;;
68608;SDS011;55581;46.718;7.690;2024-03-08T07:35:36;11.45;;;3.53;;
68608;SDS011;55581;46.718;7.690;2024-03-08T07:38:11;13.32;;;6.30;;
68608;SDS011;55581;46.718;7.690;2024-03-08T07:40:40;9.80;;;4.20;;
68608;SDS011;55581;46.718;7.690;2024-03-08T07:43:09;9.90;;;4.00;;
68608;SDS011;55581;46.718;7.690;2024-03-08T07:45:36;7.40;;;2.93;;
68608;SDS011;55581;46.718;7.690;2024-03-08T07:48:04;10.52;;;4.25;;
68608;SDS011;55581;46.718;7.690;2024-03-08T07:50:34;9.52;;;4.10;;
68608;SDS011;55581;46.718;7.690;2024-03-08T07:53:07;9.60;;;3.97;;
68608;SDS011;55581;46.718;7.690;2024-03-08T07:55:33;10.35;;;3.78;;
68608;SDS011;55581;46.718;7.690;2024-03-08T07:58:00;7.60;;;3.90;;
68608;SDS011;55581;46.718;7.690;2024-03-08T08:00:25;9.57;;;3.83;;
68608;SDS011;55581;46.718;7.690;2024-03-08T08:02:54;10.00;;;3.80;;
68608;SDS011;55581;46.718;7.690;2024-03-08T08:05:20;7.70;;;3.13;;
68608;SDS011;55581;46.718;7.690;2024-03-08T08:07:45;8.18;;;3.63;;
68608;SDS011;55581;46.718;7.690;2024-03-08T08:10:14;8.73;;;3.63;;
68608;SDS011;55581;46.718;7.690;2024-03-08T08:12:43;8.32;;;3.20;;
68608;SDS011;55581;46.718;7.690;2024-03-08T08:15:10;9.35;;;3.80;;
68608;SDS011;55581;46.718;7.690;2024-03-08T08:17:35;8.50;;;3.70;;
68608;SDS011;55581;46.718;7.690;2024-03-08T08:20:01;10.27;;;3.50;;
68608;SDS011;55581;46.718;7.690;2024-03-08T08:22:30;7.97;;;3.50;;
68608;SDS011;55581;46.718;7.690;2024-03-08T08:24:55;8.70;;;3.13;;
68608;SDS011;55581;46.718;7.690;2024-03-08T08:27:21;8.87;;;3.47;;
68608;SDS011;55581;46.718;7.690;2024-03-08T08:29:46;8.63;;;3.50;;
68608;SDS011;55581;46.718;7.690;2024-03-08T08:32:13;8.40;;;3.22;;
68608;SDS011;55581;46.718;7.690;2024-03-08T08:34:38;9.80;;;3.87;;
68608;SDS011;55581;46.718;7.690;2024-03-08T08:37:07;9.68;;;3.45;;
68608;SDS011;55581;46.718;7.690;2024-03-08T08:39:35;12.73;;;3.95;;
68608;SDS011;55581;46.718;7.690;2024-03-08T08:42:01;12.47;;;3.90;;
68608;SDS011;55581;46.718;7.690;2024-03-08T08:44:28;9.25;;;4.10;;
68608;SDS011;55581;46.718;7.690;2024-03-08T08:46:54;8.47;;;4.23;;
68608;SDS011;55581;46.718;7.690;2024-03-08T08:49:19;8.63;;;4.13;;
68608;SDS011;55581;46.718;7.690;2024-03-08T08:51:51;8.35;;;3.75;;
68608;SDS011;55581;46.718;7.690;2024-03-08T08:54:17;7.82;;;3.65;;
68608;SDS011;55581;46.718;7.690;2024-03-08T08:56:43;9.00;;;4.00;;
68608;SDS011;55581;46.718;7.690;2024-03-08T08:59:14;10.60;;;4.13;;
68608;SDS011;55581;46.718;7.690;2024-03-08T09:01:45;8.43;;;3.78;;
68608;SDS011;55581;46.718;7.690;2024-03-08T09:04:15;10.43;;;4.10;;
68608;SDS011;55581;46.718;7.690;2024-03-08T09:06:41;9.03;;;4.10;;
68608;SDS011;55581;46.718;7.690;2024-03-08T09:09:07;9.82;;;4.03;;
68608;SDS011;55581;46.718;7.690;2024-03-08T09:11:38;8.05;;;3.17;;
68608;SDS011;55581;46.718;7.690;2024-03-08T09:14:07;8.63;;;3.42;;
68608;SDS011;55581;46.718;7.690;2024-03-08T09:16:33;9.50;;;3.00;;
68608;SDS011;55581;46.718;7.690;2024-03-08T09:18:59;8.68;;;3.75;;
68608;SDS011;55581;46.718;7.690;2024-03-08T09:21:25;10.53;;;3.60;;
68608;SDS011;55581;46.718;7.690;2024-03-08T09:23:52;10.20;;;3.20;;
68608;SDS011;55581;46.718;7.690;2024-03-08T09:26:18;8.57;;;2.95;;
68608;SDS011;55581;46.718;7.690;2024-03-08T09:28:44;10.90;;;3.93;;
68608;SDS011;55581;46.718;7.690;2024-03-08T09:31:12;8.80;;;3.08;;
68608;SDS011;55581;46.718;7.690;2024-03-08T09:33:38;9.13;;;3.50;;
68608;SDS011;55581;46.718;7.690;2024-03-08T09:36:04;7.95;;;3.55;;
68608;SDS011;55581;46.718;7.690;2024-03-08T09:38:32;8.27;;;3.25;;
68608;SDS011;55581;46.718;7.690;2024-03-08T09:41:00;7.07;;;3.50;;
68608;SDS011;55581;46.718;7.690;2024-03-08T09:43:29;9.25;;;3.30;;
68608;SDS011;55581;46.718;7.690;2024-03-08T09:45:55;8.33;;;3.67;;
68608;SDS011;55581;46.718;7.690;2024-03-08T09:48:25;7.40;;;3.65;;
68608;SDS011;55581;46.718;7.690;2024-03-08T09:50:51;8.65;;;3.67;;
68608;SDS011;55581;46.718;7.690;2024-03-08T09:53:17;8.23;;;3.27;;
68608;SDS011;55581;46.718;7.690;2024-03-08T09:55:42;8.25;;;3.05;;
68608;SDS011;55581;46.718;7.690;2024-03-08T09:58:11;7.65;;;2.83;;
68608;SDS011;55581;46.718;7.690;2024-03-08T10:01:01;8.98;;;3.30;;
68608;SDS011;55581;46.718;7.690;2024-03-08T10:03:27;7.68;;;2.75;;
68608;SDS011;55581;46.718;7.690;2024-03-08T10:05:55;7.00;;;3.30;;
68608;SDS011;55581;46.718;7.690;2024-03-08T10:08:25;7.80;;;3.05;;
68608;SDS011;55581;46.718;7.690;2024-03-08T10:10:51;7.05;;;3.00;;
68608;SDS011;55581;46.718;7.690;2024-03-08T10:13:16;6.70;;;2.70;;
68608;SDS011;55581;46.718;7.690;2024-03-08T10:15:44;6.68;;;3.10;;
68608;SDS011;55581;46.718;7.690;2024-03-08T10:18:10;6.90;;;2.60;;
68608;SDS011;55581;46.718;7.690;2024-03-08T10:20:35;9.80;;;3.50;;
68608;SDS011;55581;46.718;7.690;2024-03-08T10:23:01;10.17;;;3.67;;
68608;SDS011;55581;46.718;7.690;2024-03-08T10:25:28;7.30;;;3.08;;
68608;SDS011;55581;46.718;7.690;2024-03-08T10:27:55;7.00;;;3.10;;
68608;SDS011;55581;46.718;7.690;2024-03-08T10:30:21;6.77;;;3.27;;
68608;SDS011;55581;46.718;7.690;2024-03-08T10:32:49;7.63;;;2.60;;
68608;SDS011;55581;46.718;7.690;2024-03-08T10:35:17;7.10;;;3.13;;
68608;SDS011;55581;46.718;7.690;2024-03-08T10:37:46;7.13;;;3.10;;
68608;SDS011;55581;46.718;7.690;2024-03-08T10:40:17;8.53;;;3.17;;
68608;SDS011;55581;46.718;7.690;2024-03-08T10:45:38;7.43;;;3.40;;
68608;SDS011;55581;46.718;7.690;2024-03-08T10:51:03;9.13;;;3.00;;
68608;SDS011;55581;46.718;7.690;2024-03-08T10:53:30;8.33;;;2.90;;
68608;SDS011;55581;46.718;7.690;2024-03-08T10:55:58;7.22;;;2.83;;
68608;SDS011;55581;46.718;7.690;2024-03-08T10:58:24;8.10;;;2.88;;
68608;SDS011;55581;46.718;7.690;2024-03-08T11:00:55;7.20;;;3.20;;
68608;SDS011;55581;46.718;7.690;2024-03-08T11:06:08;7.93;;;2.78;;
68608;SDS011;55581;46.718;7.690;2024-03-08T11:08:40;7.38;;;3.05;;
68608;SDS011;55581;46.718;7.690;2024-03-08T11:11:05;8.93;;;3.83;;
68608;SDS011;55581;46.718;7.690;2024-03-08T11:13:52;8.25;;;3.42;;
68608;SDS011;55581;46.718;7.690;2024-03-08T11:18:49;9.80;;;3.97;;
68608;SDS011;55581;46.718;7.690;2024-03-08T11:21:15;8.50;;;3.53;;
68608;SDS011;55581;46.718;7.690;2024-03-08T11:23:42;8.15;;;3.53;;
68608;SDS011;55581;46.718;7.690;2024-03-08T11:26:20;7.90;;;3.60;;
68608;SDS011;55581;46.718;7.690;2024-03-08T11:28:48;9.40;;;4.65;;
68608;SDS011;55581;46.718;7.690;2024-03-08T11:31:23;8.40;;;3.60;;
68608;SDS011;55581;46.718;7.690;2024-03-08T11:33:51;7.07;;;3.33;;
68608;SDS011;55581;46.718;7.690;2024-03-08T11:36:23;13.13;;;3.60;;
68608;SDS011;55581;46.718;7.690;2024-03-08T11:38:50;9.17;;;3.83;;
68608;SDS011;55581;46.718;7.690;2024-03-08T11:41:21;8.38;;;3.58;;
68608;SDS011;55581;46.718;7.690;2024-03-08T11:43:48;8.30;;;3.97;;
68608;SDS011;55581;46.718;7.690;2024-03-08T11:46:15;8.18;;;3.70;;
68608;SDS011;55581;46.718;7.690;2024-03-08T11:48:46;11.82;;;3.58;;
68608;SDS011;55581;46.718;7.690;2024-03-08T11:51:13;8.67;;;4.00;;
68608;SDS011;55581;46.718;7.690;2024-03-08T11:53:40;7.38;;;3.60;;
68608;SDS011;55581;46.718;7.690;2024-03-08T11:56:13;9.27;;;4.07;;
68608;SDS011;55581;46.718;7.690;2024-03-08T11:58:39;8.13;;;3.80;;
68608;SDS011;55581;46.718;7.690;2024-03-08T12:01:06;10.98;;;3.80;;
68608;SDS011;55581;46.718;7.690;2024-03-08T12:03:34;8.97;;;4.33;;
68608;SDS011;55581;46.718;7.690;2024-03-08T12:06:00;15.82;;;4.28;;
68608;SDS011;55581;46.718;7.690;2024-03-08T12:08:26;8.25;;;3.78;;
68608;SDS011;55581;46.718;7.690;2024-03-08T12:10:53;9.00;;;3.90;;
68608;SDS011;55581;46.718;7.690;2024-03-08T12:13:24;10.90;;;4.30;;
68608;SDS011;55581;46.718;7.690;2024-03-08T12:15:54;8.52;;;3.70;;
68608;SDS011;55581;46.718;7.690;2024-03-08T12:18:24;9.02;;;4.40;;
68608;SDS011;55581;46.718;7.690;2024-03-08T12:21:06;10.05;;;4.00;;
68608;SDS011;55581;46.718;7.690;2024-03-08T12:23:33;10.60;;;4.50;;
68608;SDS011;55581;46.718;7.690;2024-03-08T12:26:44;10.40;;;4.03;;
68608;SDS011;55581;46.718;7.690;2024-03-08T12:28:51;7.97;;;3.50;;
68608;SDS011;55581;46.718;7.690;2024-03-08T12:31:17;8.82;;;3.90;;
68608;SDS011;55581;46.718;7.690;2024-03-08T12:36:17;8.67;;;4.00;;
68608;SDS011;55581;46.718;7.690;2024-03-08T12:38:45;7.70;;;3.45;;
68608;SDS011;55581;46.718;7.690;2024-03-08T12:41:14;8.77;;;4.55;;
68608;SDS011;55581;46.718;7.690;2024-03-08T12:43:40;9.85;;;4.43;;
68608;SDS011;55581;46.718;7.690;2024-03-08T12:46:06;9.07;;;4.00;;
68608;SDS011;55581;46.718;7.690;2024-03-08T12:48:36;11.07;;;4.20;;
68608;SDS011;55581;46.718;7.690;2024-03-08T12:51:05;9.07;;;4.03;;
68608;SDS011;55581;46.718;7.690;2024-03-08T12:53:32;7.80;;;3.78;;
68608;SDS011;55581;46.718;7.690;2024-03-08T12:55:58;9.80;;;4.87;;
68608;SDS011;55581;46.718;7.690;2024-03-08T12:58:23;8.98;;;4.50;;
68608;SDS011;55581;46.718;7.690;2024-03-08T13:00:53;9.27;;;4.50;;
68608;SDS011;55581;46.718;7.690;2024-03-08T13:03:21;8.68;;;4.25;;
68608;SDS011;55581;46.718;7.690;2024-03-08T13:05:48;16.70;;;4.53;;
68608;SDS011;55581;46.718;7.690;2024-03-08T13:08:15;9.85;;;4.30;;
68608;SDS011;55581;46.718;7.690;2024-03-08T13:10:43;9.98;;;4.28;;
68608;SDS011;55581;46.718;7.690;2024-03-08T13:13:11;8.50;;;3.60;;
68608;SDS011;55581;46.718;7.690;2024-03-08T13:15:40;8.98;;;4.22;;
68608;SDS011;55581;46.718;7.690;2024-03-08T13:18:05;8.67;;;3.50;;
68608;SDS011;55581;46.718;7.690;2024-03-08T13:20:36;10.10;;;3.97;;
68608;SDS011;55581;46.718;7.690;2024-03-08T13:23:04;9.57;;;3.55;;
68608;SDS011;55581;46.718;7.690;2024-03-08T13:25:33;8.20;;;3.83;;
68608;SDS011;55581;46.718;7.690;2024-03-08T13:27:58;7.45;;;3.63;;
68608;SDS011;55581;46.718;7.690;2024-03-08T13:30:25;9.43;;;3.17;;
68608;SDS011;55581;46.718;7.690;2024-03-08T13:32:52;8.35;;;4.20;;
68608;SDS011;55581;46.718;7.690;2024-03-08T13:35:18;10.02;;;4.00;;
68608;SDS011;55581;46.718;7.690;2024-03-08T13:37:49;8.77;;;3.70;;
68608;SDS011;55581;46.718;7.690;2024-03-08T13:40:18;10.07;;;4.63;;
68608;SDS011;55581;46.718;7.690;2024-03-08T13:42:45;10.20;;;4.57;;
68608;SDS011;55581;46.718;7.690;2024-03-08T13:45:11;8.75;;;4.47;;
68608;SDS011;55581;46.718;7.690;2024-03-08T13:47:38;8.38;;;4.28;;
68608;SDS011;55581;46.718;7.690;2024-03-08T13:50:05;11.77;;;4.80;;
68608;SDS011;55581;46.718;7.690;2024-03-08T13:52:36;11.23;;;4.70;;
68608;SDS011;55581;46.718;7.690;2024-03-08T13:55:03;8.95;;;4.30;;
68608;SDS011;55581;46.718;7.690;2024-03-08T13:57:32;8.43;;;3.85;;
68608;SDS011;55581;46.718;7.690;2024-03-08T13:59:58;8.10;;;4.07;;
68608;SDS011;55581;46.718;7.690;2024-03-08T14:02:24;9.38;;;4.03;;
68608;SDS011;55581;46.718;7.690;2024-03-08T14:04:54;8.50;;;4.05;;
68608;SDS011;55581;46.718;7.690;2024-03-08T14:07:20;8.83;;;3.83;;
68608;SDS011;55581;46.718;7.690;2024-03-08T14:09:46;8.32;;;4.22;;
68608;SDS011;55581;46.718;7.690;2024-03-08T14:12:11;8.00;;;3.40;;
68608;SDS011;55581;46.718;7.690;2024-03-08T14:14:38;9.00;;;3.65;;
68608;SDS011;55581;46.718;7.690;2024-03-08T14:17:04;8.05;;;3.97;;
68608;SDS011;55581;46.718;7.690;2024-03-08T14:19:34;10.02;;;3.95;;
68608;SDS011;55581;46.718;7.690;2024-03-08T14:22:00;8.27;;;4.20;;
68608;SDS011;55581;46.718;7.690;2024-03-08T14:24:29;10.60;;;4.35;;
68608;SDS011;55581;46.718;7.690;2024-03-08T14:27:00;8.20;;;4.07;;
68608;SDS011;55581;46.718;7.690;2024-03-08T14:29:29;8.63;;;3.92;;
68608;SDS011;55581;46.718;7.690;2024-03-08T14:31:57;9.15;;;4.03;;
68608;SDS011;55581;46.718;7.690;2024-03-08T14:34:24;9.73;;;4.00;;
68608;SDS011;55581;46.718;7.690;2024-03-08T14:36:54;9.05;;;4.13;;
68608;SDS011;55581;46.718;7.690;2024-03-08T14:39:20;7.82;;;4.05;;
68608;SDS011;55581;46.718;7.690;2024-03-08T14:41:49;9.30;;;4.50;;
68608;SDS011;55581;46.718;7.690;2024-03-08T14:44:19;8.10;;;4.13;;
68608;SDS011;55581;46.718;7.690;2024-03-08T14:46:45;8.87;;;4.20;;
68608;SDS011;55581;46.718;7.690;2024-03-08T14:49:12;9.27;;;3.85;;
68608;SDS011;55581;46.718;7.690;2024-03-08T14:51:37;8.60;;;4.25;;
68608;SDS011;55581;46.718;7.690;2024-03-08T14:54:03;11.50;;;5.00;;
68608;SDS011;55581;46.718;7.690;2024-03-08T14:56:31;8.57;;;4.00;;
68608;SDS011;55581;46.718;7.690;2024-03-08T14:58:58;7.93;;;4.00;;
68608;SDS011;55581;46.718;7.690;2024-03-08T15:01:24;9.05;;;4.20;;
68608;SDS011;55581;46.718;7.690;2024-03-08T15:03:54;8.00;;;4.10;;
68608;SDS011;55581;46.718;7.690;2024-03-08T15:06:28;9.52;;;4.28;;
68608;SDS011;55581;46.718;7.690;2024-03-08T15:08:56;7.40;;;3.70;;